首页
METAR-TAF:

METAR-TAF

机场 :

埃利斯塔, 俄罗斯

纬度: 46-22N, 经度: 044-20E, 海拔: 150米

当前天气观测

该预报发布于29分钟前的21:00 UTC
风速12节,风向东北
温度 25°C
湿度 36%
气压 1010 hPa
能见度10公里或以上

METAR: URWI 182100Z AUTO 05006MPS 9999 // NCD 25/09 Q1010

时间: 00:29 (21:29 UTC)

预报

该预报发布于7小时和29分钟前的14:00 UTC
预报有效从18日的 15点(UTC)到 18日的 24点(UTC)
风速6节,风向,有时为16节阵风
能见度10公里或以上
散云层高于3000英尺, 积雨云.
短暂存在
从 18日的 15点(UTC)到 18日的 24点(UTC)
风速6节,风向,有时为16节阵风

TAF: URWI 181400Z 1815/1824 08003G08MPS 9999 SCT030CB TEMPO 1815/1824 35003G08MPS

超过4000个机场的气象观测和天气预报(METAR&TAF报告)。

可查询的气象台以黄色和红色小点在地图上表示。

将鼠标移到小点上方,可查看气象台名称。

然后点击查看天气观测和预报。

如需切换地图:点击带黑十字的绿色按钮放大地图;点击带横线的绿色按钮缩小地图;或者点击绿色箭头查看邻近地区的地图。


METAR-TAF: